createdAt,value
2018-11-23T00:00:15.112Z,24.47
2018-11-23T00:02:44.877Z,22.60
2018-11-23T00:05:13.571Z,22.60
2018-11-23T00:07:42.866Z,25.10
2018-11-23T00:10:13.543Z,23.00
2018-11-23T00:12:42.285Z,24.80
2018-11-23T00:15:13.494Z,23.77
2018-11-23T00:17:42.292Z,23.73
2018-11-23T00:20:16.218Z,25.10
2018-11-23T00:22:44.894Z,24.23
2018-11-23T00:25:15.842Z,23.73
2018-11-23T00:27:44.561Z,23.03
2018-11-23T00:30:17.704Z,21.27
2018-11-23T00:32:46.715Z,23.37
2018-11-23T00:35:17.109Z,23.73
2018-11-23T00:37:46.139Z,24.13
2018-11-23T00:40:24.090Z,25.77
2018-11-23T00:42:53.015Z,24.53
2018-11-23T00:45:21.843Z,24.97
2018-11-23T00:47:51.001Z,23.60
2018-11-23T00:50:20.798Z,25.03
2018-11-23T00:52:49.821Z,25.10
2018-11-23T00:55:19.542Z,25.00
2018-11-23T00:57:48.193Z,25.90
2018-11-23T01:00:20.381Z,25.43
2018-11-23T01:02:49.066Z,25.47
2018-11-23T01:05:18.533Z,23.90
2018-11-23T01:07:47.791Z,24.63
2018-11-23T01:10:17.807Z,26.77
2018-11-23T01:12:47.609Z,26.17
2018-11-23T01:15:16.363Z,24.37
2018-11-23T01:17:45.027Z,28.27
2018-11-23T01:20:16.889Z,26.57
2018-11-23T01:22:45.875Z,25.40
2018-11-23T01:25:15.702Z,26.27
2018-11-23T01:27:45.474Z,28.27
2018-11-23T01:30:18.348Z,26.37
2018-11-23T01:32:47.240Z,25.97
2018-11-23T01:35:15.886Z,26.47
2018-11-23T01:37:44.537Z,25.73
2018-11-23T01:40:15.687Z,34.30
2018-11-23T01:42:44.640Z,26.13
2018-11-23T01:45:13.774Z,27.03
2018-11-23T01:47:42.509Z,27.70
2018-11-23T01:50:15.327Z,28.07
2018-11-23T01:52:44.962Z,28.40
2018-11-23T01:55:14.182Z,28.40
2018-11-23T01:57:43.207Z,26.83
2018-11-23T02:00:14.625Z,27.63
2018-11-23T02:02:43.675Z,28.27
2018-11-23T02:05:12.393Z,27.73
2018-11-23T02:07:41.041Z,28.03
2018-11-23T02:10:11.162Z,27.50
2018-11-23T02:12:39.810Z,27.27
2018-11-23T02:15:11.044Z,29.27
2018-11-23T02:17:39.697Z,27.63
2018-11-23T02:20:10.558Z,26.13
2018-11-23T02:22:39.272Z,28.00
2018-11-23T02:25:08.015Z,28.10
2018-11-23T02:27:36.690Z,26.30
2018-11-23T02:30:09.340Z,26.33
2018-11-23T02:32:38.017Z,26.80
2018-11-23T02:35:06.675Z,25.37
2018-11-23T02:37:35.334Z,42.83
2018-11-23T02:40:04.030Z,26.37
2018-11-23T02:42:33.708Z,26.77
2018-11-23T02:45:02.319Z,25.33
2018-11-23T02:47:30.987Z,26.23
2018-11-23T02:49:59.634Z,26.30
2018-11-23T02:52:28.274Z,26.87
2018-11-23T02:54:56.889Z,26.10
2018-11-23T02:57:25.531Z,26.53
2018-11-23T02:59:54.153Z,27.33
2018-11-23T03:02:22.813Z,26.77
2018-11-23T03:04:51.464Z,27.77
2018-11-23T03:07:20.106Z,28.57
2018-11-23T03:09:48.754Z,28.33
2018-11-23T03:12:17.387Z,28.90
2018-11-23T03:14:45.989Z,28.50
2018-11-23T03:17:14.637Z,28.97
2018-11-23T03:19:43.258Z,27.90
2018-11-23T03:22:11.889Z,29.07
2018-11-23T03:24:40.524Z,26.50
2018-11-23T03:27:09.198Z,29.90
2018-11-23T03:29:37.819Z,28.27
2018-11-23T03:32:06.477Z,24.63
2018-11-23T03:34:35.093Z,26.87
2018-11-23T03:37:04.199Z,28.90
2018-11-23T03:39:34.118Z,26.83
2018-11-23T03:42:01.531Z,28.50
2018-11-23T03:44:30.143Z,29.03
2018-11-23T03:46:58.786Z,28.33
2018-11-23T03:49:27.389Z,27.93
2018-11-23T03:51:56.010Z,27.90
2018-11-23T03:54:24.627Z,29.13
2018-11-23T03:56:53.270Z,26.97
2018-11-23T03:59:21.884Z,29.03
2018-11-23T04:01:50.595Z,28.13
2018-11-23T04:04:19.246Z,28.57
2018-11-23T04:06:47.883Z,28.13
2018-11-23T04:09:16.510Z,28.97
2018-11-23T04:11:45.139Z,28.83
2018-11-23T04:14:13.774Z,29.23
2018-11-23T04:16:42.477Z,28.67
2018-11-23T04:19:11.125Z,28.57
2018-11-23T04:21:39.776Z,30.83
2018-11-23T04:24:08.415Z,31.00
2018-11-23T04:26:37.062Z,28.97
2018-11-23T04:29:06.020Z,27.17
2018-11-23T04:31:34.673Z,28.60
2018-11-23T04:34:03.426Z,27.77
2018-11-23T04:36:32.075Z,29.40
2018-11-23T04:39:00.715Z,30.20
2018-11-23T04:41:29.338Z,32.07
2018-11-23T04:43:57.951Z,29.90
2018-11-23T04:46:26.586Z,29.90
2018-11-23T04:48:55.242Z,29.53
2018-11-23T04:51:23.911Z,30.07
2018-11-23T04:53:52.525Z,29.23
2018-11-23T04:56:21.174Z,29.83
2018-11-23T04:58:50.083Z,29.33
2018-11-23T05:01:18.726Z,31.10
2018-11-23T05:03:47.388Z,30.03
2018-11-23T05:06:16.050Z,29.67
2018-11-23T05:08:45.178Z,32.00
2018-11-23T05:11:14.051Z,31.40
2018-11-23T05:13:42.667Z,29.53
2018-11-23T05:16:11.314Z,30.90
2018-11-23T05:18:39.945Z,29.87
2018-11-23T05:21:08.585Z,30.07
2018-11-23T05:23:37.189Z,29.17
2018-11-23T05:26:06.261Z,28.57
2018-11-23T05:28:34.884Z,30.30
2018-11-23T05:31:03.587Z,29.03
2018-11-23T05:33:32.239Z,29.53
2018-11-23T05:36:01.134Z,28.37
2018-11-23T05:38:29.923Z,28.93
2018-11-23T05:40:58.559Z,30.50
2018-11-23T05:43:27.189Z,31.57
2018-11-23T05:45:55.816Z,29.63
2018-11-23T05:48:26.930Z,30.20
2018-11-23T05:50:53.175Z,29.53
2018-11-23T05:53:21.803Z,31.93
2018-11-23T05:55:50.454Z,30.33
2018-11-23T05:58:19.090Z,29.90
2018-11-23T06:00:47.710Z,30.30
2018-11-23T06:03:16.412Z,29.53
2018-11-23T06:05:45.067Z,28.23
2018-11-23T06:08:13.688Z,29.07
2018-11-23T06:10:42.324Z,26.53
2018-11-23T06:13:10.962Z,25.80
2018-11-23T06:15:44.362Z,25.50
2018-11-23T06:18:08.321Z,25.60
2018-11-23T06:20:36.923Z,25.83
2018-11-23T06:23:05.613Z,25.97
2018-11-23T06:25:38.397Z,25.33
2018-11-23T06:28:07.073Z,24.97
2018-11-23T06:30:35.709Z,24.43
2018-11-23T06:33:15.726Z,24.33
2018-11-23T06:35:44.337Z,24.53
2018-11-23T06:38:12.953Z,24.37
2018-11-23T06:40:41.587Z,23.70
2018-11-23T06:43:10.333Z,25.73
2018-11-23T06:45:40.703Z,24.33
2018-11-23T06:48:10.195Z,24.83
2018-11-23T06:50:38.861Z,25.47
2018-11-23T06:53:07.748Z,28.50
2018-11-23T06:55:36.525Z,24.67
2018-11-23T06:58:05.343Z,23.57
2018-11-23T07:00:34.002Z,24.60
2018-11-23T07:03:02.783Z,23.40
2018-11-23T07:05:31.428Z,24.13
2018-11-23T07:08:00.112Z,24.13
2018-11-23T07:10:28.758Z,25.13
2018-11-23T07:12:57.380Z,23.53
2018-11-23T07:15:26.022Z,23.33
2018-11-23T07:17:54.647Z,22.83
2018-11-23T07:20:23.321Z,23.30
2018-11-23T07:22:51.958Z,23.20
2018-11-23T07:25:20.621Z,24.27
2018-11-23T07:27:49.258Z,21.53
2018-11-23T07:30:26.312Z,21.63
2018-11-23T07:32:55.018Z,24.10
2018-11-23T07:35:23.659Z,23.03
2018-11-23T07:37:52.339Z,28.17
2018-11-23T07:40:34.962Z,26.40
2018-11-23T07:43:09.986Z,28.03
2018-11-23T07:45:38.642Z,24.97
2018-11-23T07:48:07.969Z,25.43
2018-11-23T07:50:36.611Z,27.37
2018-11-23T07:53:05.375Z,25.03
2018-11-23T07:55:34.019Z,24.37
2018-11-23T07:58:03.300Z,23.77
2018-11-23T08:00:31.946Z,22.37
2018-11-23T08:03:00.564Z,22.47
2018-11-23T08:05:29.236Z,22.93
2018-11-23T08:07:57.875Z,21.70
2018-11-23T08:10:25.722Z,22.97
2018-11-23T08:12:54.330Z,23.40
2018-11-23T08:15:24.282Z,22.70
2018-11-23T08:17:52.931Z,23.00
2018-11-23T08:20:22.866Z,23.77
2018-11-23T08:22:51.553Z,24.63
2018-11-23T08:25:21.285Z,22.57
2018-11-23T08:27:51.052Z,24.87
2018-11-23T08:30:23.471Z,22.97
2018-11-23T08:32:52.136Z,23.63
2018-11-23T08:35:20.960Z,23.93
2018-11-23T08:37:49.573Z,24.80
2018-11-23T08:40:20.331Z,27.77
2018-11-23T08:42:49.714Z,24.37
2018-11-23T08:45:20.254Z,25.40
2018-11-23T08:47:48.981Z,24.63
2018-11-23T08:50:22.062Z,23.23
2018-11-23T08:52:50.735Z,26.40
2018-11-23T08:55:19.694Z,25.27
2018-11-23T08:57:48.315Z,25.43
2018-11-23T09:00:20.895Z,24.17
2018-11-23T09:02:50.766Z,26.73
2018-11-23T09:05:19.510Z,26.57
2018-11-23T09:07:49.174Z,25.20
2018-11-23T09:10:22.314Z,26.33
2018-11-23T09:12:53.586Z,27.10
2018-11-23T09:15:22.216Z,25.43
2018-11-23T09:17:50.858Z,27.37
2018-11-23T09:20:19.805Z,27.00
2018-11-23T09:22:48.442Z,27.43
2018-11-23T09:25:19.282Z,27.73
2018-11-23T09:27:47.959Z,26.13
2018-11-23T09:30:23.582Z,28.40
2018-11-23T09:32:53.006Z,29.23
2018-11-23T09:35:21.655Z,31.10
2018-11-23T09:37:50.706Z,25.47
2018-11-23T09:40:20.768Z,28.87
2018-11-23T09:42:49.652Z,27.53
2018-11-23T09:45:19.652Z,28.57
2018-11-23T09:47:49.320Z,28.93
2018-11-23T09:50:19.915Z,29.93
2018-11-23T09:52:50.155Z,27.53
2018-11-23T09:55:18.933Z,28.30
2018-11-23T09:57:47.542Z,27.17
2018-11-23T10:00:25.390Z,29.27
2018-11-23T10:02:54.946Z,29.27
2018-11-23T10:05:24.335Z,26.43
2018-11-23T10:07:54.551Z,25.33
2018-11-23T10:10:23.867Z,26.40
2018-11-23T10:12:52.559Z,26.43
2018-11-23T10:15:21.982Z,25.33
2018-11-23T10:17:50.636Z,25.53
2018-11-23T10:20:24.302Z,24.83
2018-11-23T10:22:52.944Z,24.03
2018-11-23T10:25:22.891Z,24.77
2018-11-23T10:27:51.518Z,24.80
2018-11-23T10:30:23.443Z,25.07
2018-11-23T10:32:53.207Z,24.43
2018-11-23T10:35:21.894Z,24.13
2018-11-23T10:37:51.863Z,23.20
2018-11-23T10:40:22.667Z,23.77
2018-11-23T10:42:51.402Z,23.37
2018-11-23T10:45:22.119Z,23.33
2018-11-23T10:47:51.466Z,22.53
2018-11-23T10:50:21.347Z,24.77
2018-11-23T10:52:50.087Z,23.10
2018-11-23T10:55:20.531Z,21.20
2018-11-23T10:57:49.336Z,22.80
2018-11-23T11:00:23.788Z,23.27
2018-11-23T11:02:58.834Z,23.17
2018-11-23T11:05:32.654Z,22.07
2018-11-23T11:08:02.518Z,23.00
2018-11-23T11:10:31.208Z,25.00
2018-11-23T11:12:59.858Z,23.83
2018-11-23T11:15:28.473Z,22.07
2018-11-23T11:17:57.129Z,21.87
2018-11-23T11:20:25.773Z,21.90
2018-11-23T11:22:54.436Z,21.37
2018-11-23T11:25:23.076Z,22.27
2018-11-23T11:27:51.721Z,21.17
2018-11-23T11:30:20.669Z,20.00
2018-11-23T11:32:49.746Z,22.67
2018-11-23T11:35:18.367Z,22.50
2018-11-23T11:37:46.999Z,22.20
2018-11-23T11:40:17.118Z,20.73
2018-11-23T11:42:45.906Z,21.13
2018-11-23T11:45:15.859Z,20.47
2018-11-23T11:47:45.058Z,20.80
2018-11-23T11:50:14.141Z,21.20
2018-11-23T11:52:43.982Z,20.60
2018-11-23T11:55:14.466Z,21.27
2018-11-23T11:57:43.570Z,21.10
2018-11-23T12:00:14.102Z,23.33
2018-11-23T12:02:42.775Z,21.23
2018-11-23T12:05:12.270Z,22.97
2018-11-23T12:07:41.209Z,21.77
2018-11-23T12:10:12.405Z,22.50
2018-11-23T12:12:41.048Z,22.33
2018-11-23T12:15:10.830Z,22.93
2018-11-23T12:17:39.841Z,21.33
2018-11-23T12:20:10.964Z,21.63
2018-11-23T12:22:39.666Z,21.23
2018-11-23T12:25:08.327Z,20.63
2018-11-23T12:27:37.018Z,20.97
2018-11-23T12:30:09.831Z,19.37
2018-11-23T12:32:38.525Z,19.13
2018-11-23T12:35:08.322Z,18.77
2018-11-23T12:37:36.950Z,20.17
2018-11-23T12:40:06.976Z,18.97
2018-11-23T12:42:35.609Z,20.57
2018-11-23T12:45:04.444Z,19.53
2018-11-23T12:47:33.142Z,22.50
2018-11-23T12:50:01.750Z,25.20
2018-11-23T12:52:30.394Z,19.60
2018-11-23T12:54:59.001Z,17.70
2018-11-23T12:57:27.703Z,19.77
2018-11-23T12:59:56.319Z,19.17
2018-11-23T13:02:24.979Z,20.53
2018-11-23T13:04:53.598Z,19.80
2018-11-23T13:07:22.262Z,19.60
2018-11-23T13:09:50.930Z,18.83
2018-11-23T13:12:19.579Z,19.33
2018-11-23T13:14:48.201Z,18.53
2018-11-23T13:17:16.838Z,18.10
2018-11-23T13:19:45.491Z,19.07
2018-11-23T13:22:14.120Z,21.63
2018-11-23T13:24:42.774Z,25.20
2018-11-23T13:27:14.475Z,23.63
2018-11-23T13:29:43.363Z,25.93
2018-11-23T13:32:11.991Z,22.77
2018-11-23T13:34:40.642Z,21.43
2018-11-23T13:37:09.279Z,21.27
2018-11-23T13:39:37.986Z,21.37
2018-11-23T13:42:06.705Z,18.83
2018-11-23T13:44:35.579Z,19.47
2018-11-23T13:47:04.247Z,21.37
2018-11-23T13:49:32.894Z,18.70
2018-11-23T13:52:01.553Z,19.83
2018-11-23T13:54:30.158Z,20.70
2018-11-23T13:56:58.795Z,19.80
2018-11-23T13:59:27.420Z,18.87
2018-11-23T14:01:56.085Z,19.60
2018-11-23T14:04:24.722Z,19.70
2018-11-23T14:06:53.431Z,20.77
2018-11-23T14:09:22.117Z,18.27
2018-11-23T14:11:50.755Z,19.00
2018-11-23T14:14:19.405Z,19.40
2018-11-23T14:16:48.026Z,18.60
2018-11-23T14:19:16.634Z,20.00
2018-11-23T14:21:45.284Z,19.33
2018-11-23T14:24:13.898Z,20.73
2018-11-23T14:26:42.548Z,20.03
2018-11-23T14:29:11.196Z,19.20
2018-11-23T14:31:39.839Z,20.60
2018-11-23T14:34:08.495Z,21.53
2018-11-23T14:36:37.140Z,21.13
2018-11-23T14:39:07.813Z,19.03
2018-11-23T14:41:36.748Z,19.63
2018-11-23T14:44:06.939Z,19.97
2018-11-23T14:46:34.177Z,20.10
2018-11-23T14:49:02.817Z,20.17
2018-11-23T14:51:31.450Z,19.33
2018-11-23T14:54:00.124Z,20.63
2018-11-23T14:56:28.784Z,20.20
2018-11-23T14:58:57.411Z,21.70
2018-11-23T15:01:26.262Z,31.93
2018-11-23T15:03:54.902Z,21.47
2018-11-23T15:06:23.529Z,21.20
2018-11-23T15:08:55.738Z,20.60
2018-11-23T15:11:24.489Z,20.60
2018-11-23T15:13:53.151Z,20.17
2018-11-23T15:16:21.814Z,20.47
2018-11-23T15:18:50.481Z,20.23
2018-11-23T15:21:19.082Z,20.53
2018-11-23T15:23:47.724Z,21.13
2018-11-23T15:26:16.381Z,21.03
2018-11-23T15:28:45.026Z,19.87
2018-11-23T15:31:13.670Z,20.93
2018-11-23T15:33:42.304Z,18.97
2018-11-23T15:36:17.650Z,19.03
2018-11-23T15:38:46.286Z,19.43
2018-11-23T15:41:14.971Z,18.43
2018-11-23T15:43:43.585Z,19.53
2018-11-23T15:46:12.237Z,20.37
2018-11-23T15:48:40.862Z,20.10
2018-11-23T15:51:10.588Z,20.00
2018-11-23T15:53:39.242Z,19.80
2018-11-23T15:56:07.923Z,20.00
2018-11-23T15:58:36.567Z,20.30
2018-11-23T16:01:05.450Z,20.77
2018-11-23T16:03:34.155Z,20.37
2018-11-23T16:06:02.886Z,20.67
2018-11-23T16:08:31.552Z,18.97
2018-11-23T16:11:00.245Z,20.60
2018-11-23T16:13:28.875Z,18.53
2018-11-23T16:15:57.540Z,19.00
2018-11-23T16:18:26.156Z,20.70
2018-11-23T16:20:54.853Z,20.90
2018-11-23T16:23:23.515Z,20.13
2018-11-23T16:25:58.493Z,18.60
2018-11-23T16:28:27.125Z,20.43
2018-11-23T16:30:55.771Z,20.60
2018-11-23T16:33:28.030Z,20.30
2018-11-23T16:35:56.682Z,19.37
2018-11-23T16:38:25.510Z,20.60
2018-11-23T16:40:56.481Z,21.53
2018-11-23T16:43:25.130Z,20.23
2018-11-23T16:45:53.793Z,20.57
2018-11-23T16:48:22.946Z,20.30
2018-11-23T16:50:51.595Z,18.57
2018-11-23T16:53:20.220Z,19.73
2018-11-23T16:55:55.140Z,19.77
2018-11-23T16:58:23.798Z,18.93
2018-11-23T17:00:52.688Z,19.73
2018-11-23T17:03:22.331Z,21.20
2018-11-23T17:05:54.251Z,20.20
2018-11-23T17:08:22.932Z,21.20
2018-11-23T17:10:51.666Z,19.83
2018-11-23T17:13:20.325Z,19.83
2018-11-23T17:15:49.051Z,20.37
2018-11-23T17:18:17.698Z,19.83
2018-11-23T17:20:46.333Z,19.93
2018-11-23T17:23:15.035Z,21.27
2018-11-23T17:25:43.722Z,21.60
2018-11-23T17:28:12.772Z,22.17
2018-11-23T17:30:41.493Z,22.13
2018-11-23T17:33:10.129Z,23.03
2018-11-23T17:35:38.762Z,21.33
2018-11-23T17:38:07.387Z,21.53
2018-11-23T17:40:37.831Z,20.77
2018-11-23T17:43:06.733Z,21.73
2018-11-23T17:45:35.526Z,23.83
2018-11-23T17:48:04.142Z,23.17
2018-11-23T17:50:34.035Z,24.20
2018-11-23T17:53:02.746Z,26.37
2018-11-23T17:55:31.421Z,24.33
2018-11-23T17:58:00.152Z,25.30
2018-11-23T18:00:29.960Z,27.60
2018-11-23T18:02:59.493Z,25.93
2018-11-23T18:05:28.923Z,25.30
2018-11-23T18:07:57.875Z,27.00
2018-11-23T18:10:27.929Z,27.33
2018-11-23T18:12:57.189Z,29.50
2018-11-23T18:15:27.129Z,29.53
2018-11-23T18:17:56.843Z,27.43
2018-11-23T18:20:26.526Z,26.83
2018-11-23T18:22:56.046Z,24.53
2018-11-23T18:25:26.306Z,23.47
2018-11-23T18:28:00.382Z,25.80
2018-11-23T18:30:31.186Z,25.20
2018-11-23T18:33:00.400Z,24.17
2018-11-23T18:35:29.183Z,23.73
2018-11-23T18:37:57.878Z,22.20
2018-11-23T18:40:27.417Z,21.53
2018-11-23T18:42:56.617Z,23.03
2018-11-23T18:45:26.428Z,25.07
2018-11-23T18:47:55.146Z,23.00
2018-11-23T18:50:24.930Z,21.40
2018-11-23T18:52:53.596Z,22.10
2018-11-23T18:55:22.376Z,21.63
2018-11-23T18:57:51.216Z,23.00
2018-11-23T19:00:19.932Z,22.23
2018-11-23T19:02:48.718Z,22.03
2018-11-23T19:05:22.304Z,22.27
2018-11-23T19:07:50.956Z,21.73
2018-11-23T19:10:19.729Z,21.00
2018-11-23T19:12:48.390Z,21.33
2018-11-23T19:15:25.180Z,21.90
2018-11-23T19:17:46.918Z,22.17
2018-11-23T19:20:19.510Z,21.70
2018-11-23T19:22:49.391Z,22.80
2018-11-23T19:25:18.093Z,21.40
2018-11-23T19:27:46.758Z,22.37
2018-11-23T19:30:16.656Z,21.57
2018-11-23T19:32:45.380Z,21.53
2018-11-23T19:35:14.100Z,23.43
2018-11-23T19:37:42.768Z,22.90
2018-11-23T19:40:15.395Z,26.77
2018-11-23T19:42:44.794Z,28.20
2018-11-23T19:45:14.412Z,26.23
2018-11-23T19:47:43.106Z,25.93
2018-11-23T19:50:16.438Z,27.50
2018-11-23T19:52:45.164Z,24.87
2018-11-23T19:55:14.775Z,26.30
2018-11-23T19:57:43.398Z,24.57
2018-11-23T20:00:14.442Z,25.90
2018-11-23T20:02:43.110Z,25.23
2018-11-23T20:05:11.787Z,25.70
2018-11-23T20:07:40.446Z,25.27
2018-11-23T20:10:11.387Z,25.47
2018-11-23T20:12:40.097Z,24.70
2018-11-23T20:15:11.245Z,25.00
2018-11-23T20:17:46.587Z,25.43
2018-11-23T20:20:15.958Z,25.27
2018-11-23T20:22:45.021Z,24.87
2018-11-23T20:25:17.980Z,24.93
2018-11-23T20:27:47.213Z,26.30
2018-11-23T20:30:16.668Z,25.67
2018-11-23T20:32:45.507Z,28.53
2018-11-23T20:35:16.255Z,29.17
2018-11-23T20:37:44.934Z,28.90
2018-11-23T20:40:17.664Z,27.10
2018-11-23T20:42:46.359Z,27.73
2018-11-23T20:45:15.151Z,27.03
2018-11-23T20:47:43.811Z,29.00
2018-11-23T20:50:13.625Z,32.33
2018-11-23T20:52:42.297Z,33.37
2018-11-23T20:55:13.082Z,35.53
2018-11-23T20:57:41.782Z,33.33
2018-11-23T21:00:13.710Z,30.07
2018-11-23T21:02:45.401Z,26.73
2018-11-23T21:05:15.989Z,27.30
2018-11-23T21:07:44.658Z,27.13
2018-11-23T21:10:20.233Z,28.10
2018-11-23T21:12:48.140Z,28.83
2018-11-23T21:15:27.459Z,28.90
2018-11-23T21:17:56.871Z,27.97
2018-11-23T21:20:25.566Z,27.33
2018-11-23T21:22:54.245Z,26.10
2018-11-23T21:25:22.887Z,25.60
2018-11-23T21:27:51.653Z,26.37
2018-11-23T21:30:22.606Z,27.13
2018-11-23T21:32:51.880Z,26.80
2018-11-23T21:35:20.508Z,30.73
2018-11-23T21:37:49.189Z,28.90
2018-11-23T21:40:17.966Z,28.17
2018-11-23T21:42:46.627Z,25.87
2018-11-23T21:45:17.076Z,26.43
2018-11-23T21:47:45.761Z,26.77
2018-11-23T21:50:16.523Z,26.60
2018-11-23T21:52:45.210Z,30.93
2018-11-23T21:55:17.753Z,28.13
2018-11-23T21:57:46.398Z,28.10
2018-11-23T22:00:15.920Z,27.43
2018-11-23T22:02:44.662Z,27.33
2018-11-23T22:05:13.363Z,27.20
2018-11-23T22:07:42.054Z,28.33
2018-11-23T22:10:18.107Z,25.50
2018-11-23T22:12:46.897Z,26.67
2018-11-23T22:15:17.743Z,26.47
2018-11-23T22:17:46.864Z,28.13
2018-11-23T22:20:16.690Z,26.30
2018-11-23T22:22:45.346Z,27.53
2018-11-23T22:25:15.015Z,28.03
2018-11-23T22:27:43.904Z,28.03
2018-11-23T22:30:15.909Z,27.63
2018-11-23T22:32:44.601Z,27.10
2018-11-23T22:35:13.639Z,26.63
2018-11-23T22:37:42.287Z,25.50
2018-11-23T22:40:14.070Z,26.20
2018-11-23T22:42:46.934Z,25.33
2018-11-23T22:45:16.439Z,26.83
2018-11-23T22:47:45.168Z,27.67
2018-11-23T22:50:16.929Z,29.63
2018-11-23T22:52:45.558Z,29.10
2018-11-23T22:55:15.845Z,28.10
2018-11-23T22:57:44.610Z,25.90
2018-11-23T23:00:55.882Z,25.50
2018-11-23T23:03:24.539Z,24.33
2018-11-23T23:05:53.187Z,25.20
2018-11-23T23:08:21.803Z,28.07
2018-11-23T23:10:50.453Z,30.10
2018-11-23T23:13:19.148Z,31.83
2018-11-23T23:15:47.785Z,26.37
2018-11-23T23:18:16.409Z,26.63
2018-11-23T23:20:45.043Z,25.10
2018-11-23T23:23:20.163Z,24.57
2018-11-23T23:25:48.793Z,24.47
2018-11-23T23:28:17.526Z,26.13
2018-11-23T23:30:46.187Z,27.07
2018-11-23T23:33:14.782Z,26.83
2018-11-23T23:35:43.422Z,25.43
2018-11-23T23:38:12.037Z,24.90
2018-11-23T23:40:40.705Z,23.60
2018-11-23T23:43:09.338Z,25.00
2018-11-23T23:45:37.973Z,24.23
2018-11-23T23:48:06.614Z,24.77
2018-11-23T23:50:35.251Z,24.70
2018-11-23T23:53:03.869Z,25.73
2018-11-23T23:55:32.515Z,25.57
2018-11-23T23:58:01.120Z,25.53
